createdAt,value
2022-12-08T00:00:06.981Z,4.88
2022-12-08T00:02:38.580Z,5.95
2022-12-08T00:05:24.088Z,9.15
2022-12-08T00:08:09.009Z,5.57
2022-12-08T00:10:50.871Z,6.93
2022-12-08T00:13:17.435Z,11.35
2022-12-08T00:15:43.916Z,5.72
2022-12-08T00:18:10.376Z,7.25
2022-12-08T00:20:36.797Z,4.80
2022-12-08T00:23:04.483Z,8.93
2022-12-08T00:25:31.874Z,7.30
2022-12-08T00:27:58.303Z,5.28
2022-12-08T00:30:24.747Z,5.65
2022-12-08T00:32:51.408Z,5.28
2022-12-08T00:35:17.915Z,6.15
2022-12-08T00:37:44.453Z,5.75
2022-12-08T00:40:11.095Z,6.43
2022-12-08T00:42:37.523Z,7.78
2022-12-08T00:45:04.461Z,7.20
2022-12-08T00:47:30.964Z,6.63
2022-12-08T00:49:57.427Z,8.13
2022-12-08T00:52:23.834Z,6.22
2022-12-08T00:54:50.305Z,6.03
2022-12-08T00:57:16.776Z,7.13
2022-12-08T00:59:43.280Z,7.43
2022-12-08T01:02:09.764Z,9.05
2022-12-08T01:04:36.271Z,7.28
2022-12-08T01:07:02.727Z,6.15
2022-12-08T01:09:29.341Z,5.80
2022-12-08T01:11:55.961Z,6.25
2022-12-08T01:14:22.480Z,6.13
2022-12-08T01:16:49.105Z,6.53
2022-12-08T01:19:16.760Z,6.60
2022-12-08T01:21:44.551Z,6.53
2022-12-08T01:24:16.639Z,7.47
2022-12-08T01:26:43.355Z,5.75
2022-12-08T01:29:10.400Z,7.47
2022-12-08T01:31:37.471Z,7.65
2022-12-08T01:34:04.376Z,6.05
2022-12-08T01:36:32.757Z,6.57
2022-12-08T01:39:01.337Z,4.85
2022-12-08T01:41:31.177Z,5.80
2022-12-08T01:44:24.685Z,5.53
2022-12-08T01:46:53.444Z,5.10
2022-12-08T01:49:30.363Z,5.18
2022-12-08T01:52:22.823Z,4.90
2022-12-08T01:55:03.396Z,4.50
2022-12-08T01:57:35.059Z,3.92
2022-12-08T02:00:06.941Z,4.97
2022-12-08T02:02:48.042Z,3.20
2022-12-08T02:05:16.322Z,3.30
2022-12-08T02:07:44.170Z,5.88
2022-12-08T02:10:14.525Z,3.47
2022-12-08T02:12:41.034Z,3.40
2022-12-08T02:15:08.044Z,3.28
2022-12-08T02:17:53.399Z,5.05
2022-12-08T02:20:34.428Z,3.53
2022-12-08T02:23:11.158Z,4.17
2022-12-08T02:25:40.561Z,4.03
2022-12-08T02:28:28.867Z,5.78
2022-12-08T02:31:01.488Z,4.75
2022-12-08T02:33:47.113Z,5.18
2022-12-08T02:36:35.766Z,8.70
2022-12-08T02:39:23.304Z,4.50
2022-12-08T02:42:02.090Z,5.30
2022-12-08T02:44:35.519Z,5.50
2022-12-08T02:47:08.332Z,6.30
2022-12-08T02:49:35.943Z,6.80
2022-12-08T02:52:29.242Z,5.30
2022-12-08T02:55:01.628Z,5.22
2022-12-08T02:57:52.894Z,5.60
2022-12-08T03:00:22.638Z,5.63
2022-12-08T03:03:13.593Z,4.97
2022-12-08T03:06:17.136Z,4.50
2022-12-08T03:09:03.817Z,4.35
2022-12-08T03:11:38.798Z,3.83
2022-12-08T03:14:07.481Z,4.28
2022-12-08T03:16:38.061Z,4.28
2022-12-08T03:19:17.438Z,3.72
2022-12-08T03:21:46.921Z,4.63
2022-12-08T03:24:15.199Z,3.45
2022-12-08T03:26:57.297Z,4.22
2022-12-08T03:29:24.467Z,3.83
2022-12-08T03:31:56.237Z,3.08
2022-12-08T03:36:51.854Z,4.57
2022-12-08T03:39:18.511Z,2.17
2022-12-08T03:41:47.024Z,3.00
2022-12-08T03:44:13.503Z,3.72
2022-12-08T03:46:39.896Z,4.25
2022-12-08T03:49:06.430Z,6.40
2022-12-08T03:51:32.860Z,1.70
2022-12-08T03:53:59.297Z,1.50
2022-12-08T03:56:32.381Z,3.42
2022-12-08T03:58:59.132Z,1.60
2022-12-08T04:01:26.047Z,2.50
2022-12-08T04:03:53.356Z,1.33
2022-12-08T04:06:20.650Z,0.90
2022-12-08T04:08:47.472Z,1.00
2022-12-08T04:11:13.945Z,2.47
2022-12-08T04:13:41.498Z,0.73
2022-12-08T04:16:13.535Z,1.20
2022-12-08T04:18:40.055Z,1.02
2022-12-08T04:21:06.481Z,1.27
2022-12-08T04:23:32.883Z,1.08
2022-12-08T04:25:59.354Z,1.45
2022-12-08T04:28:25.762Z,0.82
2022-12-08T04:30:52.231Z,2.28
2022-12-08T04:33:18.730Z,1.73
2022-12-08T04:35:45.484Z,0.80
2022-12-08T04:38:11.965Z,0.98
2022-12-08T04:40:38.604Z,1.60
2022-12-08T04:43:05.173Z,1.30
2022-12-08T04:45:32.291Z,3.85
2022-12-08T04:48:00.055Z,2.50
2022-12-08T04:50:27.368Z,1.70
2022-12-08T04:52:53.974Z,1.92
2022-12-08T04:55:20.632Z,1.98
2022-12-08T04:57:47.117Z,1.70
2022-12-08T05:00:14.234Z,4.80
2022-12-08T05:02:40.812Z,2.58
2022-12-08T05:05:07.702Z,3.58
2022-12-08T05:07:34.242Z,2.17
2022-12-08T05:10:00.855Z,3.28
2022-12-08T05:12:27.581Z,2.17
2022-12-08T05:14:54.098Z,2.10
2022-12-08T05:17:20.606Z,1.90
2022-12-08T05:19:47.055Z,2.72
2022-12-08T05:22:13.524Z,2.13
2022-12-08T05:24:45.690Z,1.90
2022-12-08T05:27:13.831Z,2.08
2022-12-08T05:29:40.250Z,1.73
2022-12-08T05:32:06.811Z,2.17
2022-12-08T05:34:33.375Z,3.83
2022-12-08T05:36:59.949Z,2.63
2022-12-08T05:39:26.490Z,1.42
2022-12-08T05:41:52.912Z,2.70
2022-12-08T05:44:19.584Z,3.15
2022-12-08T05:46:46.325Z,1.75
2022-12-08T05:49:12.818Z,0.95
2022-12-08T05:51:39.283Z,1.27
2022-12-08T05:54:05.769Z,1.20
2022-12-08T05:56:32.221Z,1.63
2022-12-08T05:58:58.688Z,0.70
2022-12-08T06:01:28.328Z,1.77
2022-12-08T06:03:55.314Z,0.68
2022-12-08T06:06:21.875Z,1.10
2022-12-08T06:08:49.019Z,5.65
2022-12-08T06:11:34.576Z,0.70
2022-12-08T06:14:01.862Z,0.70
2022-12-08T06:16:28.977Z,0.88
2022-12-08T06:18:56.342Z,1.10
2022-12-08T06:21:22.784Z,1.25
2022-12-08T06:23:51.029Z,1.85
2022-12-08T06:26:18.384Z,0.60
2022-12-08T06:28:44.949Z,0.90
2022-12-08T06:31:15.094Z,0.80
2022-12-08T06:33:42.006Z,2.72
2022-12-08T06:36:08.639Z,0.70
2022-12-08T06:38:38.101Z,0.60
2022-12-08T06:43:33.399Z,0.50
2022-12-08T06:46:01.366Z,0.82
2022-12-08T06:48:27.883Z,0.60
2022-12-08T06:50:54.352Z,0.68
2022-12-08T06:53:20.793Z,1.45
2022-12-08T06:55:59.417Z,0.75
2022-12-08T06:58:26.585Z,0.50
2022-12-08T07:00:53.685Z,0.65
2022-12-08T07:03:20.540Z,0.70
2022-12-08T07:05:47.157Z,0.85
2022-12-08T07:08:13.752Z,0.50
2022-12-08T07:10:40.285Z,0.85
2022-12-08T07:13:06.917Z,1.00
2022-12-08T07:15:33.690Z,1.63
2022-12-08T07:18:00.724Z,1.20
2022-12-08T07:20:28.025Z,1.70
2022-12-08T07:22:57.158Z,1.92
2022-12-08T07:25:23.920Z,1.95
2022-12-08T07:27:53.302Z,2.05
2022-12-08T07:30:20.534Z,1.98
2022-12-08T07:32:47.243Z,2.20
2022-12-08T07:35:13.855Z,2.05
2022-12-08T07:37:40.431Z,2.08
2022-12-08T07:40:08.747Z,1.98
2022-12-08T07:42:35.498Z,2.15
2022-12-08T07:45:02.261Z,1.60
2022-12-08T07:47:28.896Z,2.20
2022-12-08T07:49:55.405Z,2.17
2022-12-08T07:52:21.929Z,2.00
2022-12-08T07:54:48.403Z,2.25
2022-12-08T07:57:15.121Z,2.45
2022-12-08T07:59:41.563Z,1.80
2022-12-08T08:02:24.323Z,2.15
2022-12-08T08:04:52.259Z,1.77
2022-12-08T08:07:18.777Z,1.77
2022-12-08T08:09:45.853Z,4.05
2022-12-08T08:12:38.905Z,1.63
2022-12-08T08:15:00.588Z,1.40
2022-12-08T08:17:28.014Z,2.13
2022-12-08T08:19:54.584Z,1.75
2022-12-08T08:22:21.059Z,2.88
2022-12-08T08:24:47.592Z,2.97
2022-12-08T08:27:14.071Z,1.13
2022-12-08T08:29:40.519Z,1.00
2022-12-08T08:32:07.093Z,1.73
2022-12-08T08:34:33.539Z,1.20
2022-12-08T08:37:00.090Z,1.02
2022-12-08T08:39:26.749Z,2.50
2022-12-08T08:41:53.181Z,2.22
2022-12-08T08:44:19.602Z,2.38
2022-12-08T08:46:46.109Z,1.13
2022-12-08T08:49:13.127Z,0.98
2022-12-08T08:51:39.658Z,1.00
2022-12-08T08:54:06.219Z,2.28
2022-12-08T08:56:32.754Z,1.00
2022-12-08T08:58:59.185Z,1.10
2022-12-08T09:01:28.085Z,2.53
2022-12-08T09:03:58.052Z,1.20
2022-12-08T09:06:25.727Z,2.65
2022-12-08T09:08:52.339Z,0.77
2022-12-08T09:11:18.937Z,0.90
2022-12-08T09:13:49.495Z,0.90
2022-12-08T09:16:16.765Z,1.33
2022-12-08T09:18:43.272Z,1.15
2022-12-08T09:21:13.091Z,3.00
2022-12-08T09:23:39.953Z,2.35
2022-12-08T09:26:06.713Z,1.30
2022-12-08T09:28:33.508Z,1.40
2022-12-08T09:31:01.571Z,4.53
2022-12-08T09:33:28.138Z,1.40
2022-12-08T09:35:55.009Z,1.27
2022-12-08T09:38:21.563Z,1.00
2022-12-08T09:40:53.149Z,1.10
2022-12-08T09:43:58.420Z,1.50
2022-12-08T09:46:28.073Z,1.58
2022-12-08T09:48:57.535Z,4.97
2022-12-08T09:51:34.631Z,1.30
2022-12-08T09:54:08.753Z,1.00
2022-12-08T09:56:37.582Z,1.08
2022-12-08T09:59:09.594Z,0.98
2022-12-08T10:01:41.543Z,1.20
2022-12-08T10:04:32.424Z,1.30
2022-12-08T10:07:33.775Z,3.20
2022-12-08T10:10:09.444Z,1.30
2022-12-08T10:12:57.468Z,1.20
2022-12-08T10:15:35.937Z,1.30
2022-12-08T10:18:09.886Z,1.70
2022-12-08T10:20:39.803Z,1.08
2022-12-08T10:23:19.165Z,1.45
2022-12-08T10:25:47.888Z,1.92
2022-12-08T10:28:15.247Z,1.45
2022-12-08T10:30:42.253Z,2.70
2022-12-08T10:33:17.843Z,2.25
2022-12-08T10:35:52.134Z,1.17
2022-12-08T10:38:22.619Z,1.00
2022-12-08T10:40:51.979Z,2.67
2022-12-08T10:43:23.957Z,1.00
2022-12-08T10:45:51.345Z,0.63
2022-12-08T10:48:29.081Z,1.00
2022-12-08T10:50:57.473Z,1.08
2022-12-08T10:53:26.880Z,1.40
2022-12-08T10:56:02.473Z,1.85
2022-12-08T10:58:36.371Z,1.67
2022-12-08T11:01:06.696Z,1.15
2022-12-08T11:03:37.620Z,0.40
2022-12-08T11:06:14.755Z,2.37
2022-12-08T11:08:57.168Z,0.50
2022-12-08T11:11:57.521Z,1.55
2022-12-08T11:14:32.371Z,0.63
2022-12-08T11:17:25.010Z,1.55
2022-12-08T11:20:06.528Z,1.00
2022-12-08T11:22:38.070Z,0.95
2022-12-08T11:25:07.571Z,0.88
2022-12-08T11:27:39.055Z,0.93
2022-12-08T11:30:21.311Z,2.17
2022-12-08T11:32:53.752Z,0.70
2022-12-08T11:35:29.178Z,1.63
2022-12-08T11:38:13.704Z,1.50
2022-12-08T11:40:50.222Z,1.17
2022-12-08T11:43:22.698Z,1.40
2022-12-08T11:46:19.804Z,1.80
2022-12-08T11:49:04.349Z,1.85
2022-12-08T11:51:57.339Z,1.88
2022-12-08T11:54:32.074Z,2.08
2022-12-08T11:57:03.766Z,2.38
2022-12-08T11:59:34.375Z,1.63
2022-12-08T12:02:04.280Z,2.10
2022-12-08T12:04:30.762Z,3.63
2022-12-08T12:07:12.378Z,2.00
2022-12-08T12:10:16.766Z,1.80
2022-12-08T12:13:09.746Z,2.30
2022-12-08T12:16:10.239Z,1.13
2022-12-08T12:18:46.381Z,1.27
2022-12-08T12:21:21.539Z,0.80
2022-12-08T12:23:57.722Z,1.40
2022-12-08T12:26:31.074Z,0.52
2022-12-08T12:29:06.758Z,1.08
2022-12-08T12:31:37.038Z,0.80
2022-12-08T12:34:11.761Z,0.73
2022-12-08T12:36:51.968Z,0.85
2022-12-08T12:39:21.614Z,0.82
2022-12-08T12:41:54.084Z,0.98
2022-12-08T12:44:22.654Z,1.05
2022-12-08T12:46:53.147Z,1.30
2022-12-08T12:49:37.974Z,1.20
2022-12-08T12:52:10.541Z,1.20
2022-12-08T12:54:42.651Z,1.75
2022-12-08T12:57:09.174Z,3.03
2022-12-08T12:59:51.618Z,2.20
2022-12-08T13:02:39.866Z,2.40
2022-12-08T13:05:20.947Z,2.28
2022-12-08T13:08:00.746Z,3.90
2022-12-08T13:10:38.593Z,2.60
2022-12-08T13:13:12.545Z,2.50
2022-12-08T13:15:53.248Z,2.42
2022-12-08T13:18:23.939Z,1.92
2022-12-08T13:20:54.930Z,1.80
2022-12-08T13:23:36.768Z,2.90
2022-12-08T13:26:09.513Z,1.60
2022-12-08T13:28:58.526Z,1.65
2022-12-08T13:31:50.643Z,1.88
2022-12-08T13:34:41.534Z,1.20
2022-12-08T13:37:10.955Z,1.67
2022-12-08T13:39:40.403Z,1.10
2022-12-08T13:42:12.922Z,1.40
2022-12-08T13:45:19.720Z,3.33
2022-12-08T13:48:21.494Z,2.33
2022-12-08T13:52:37.020Z,2.30
2022-12-08T13:54:09.841Z,2.10
2022-12-08T13:59:33.485Z,2.25
2022-12-08T14:02:36.302Z,2.08
2022-12-08T14:05:40.645Z,2.38
2022-12-08T14:07:55.711Z,2.88
2022-12-08T14:10:28.207Z,3.05
2022-12-08T14:12:59.217Z,2.63
2022-12-08T14:15:26.685Z,2.95
2022-12-08T14:17:57.239Z,6.45
2022-12-08T14:20:27.513Z,3.25
2022-12-08T14:22:54.333Z,3.40
2022-12-08T14:25:21.936Z,3.15
2022-12-08T14:27:49.154Z,5.78
2022-12-08T14:30:24.338Z,3.67
2022-12-08T14:32:53.977Z,5.85
2022-12-08T14:35:28.307Z,2.95
2022-12-08T14:37:58.649Z,3.67
2022-12-08T14:40:35.100Z,2.60
2022-12-08T14:43:07.560Z,3.90
2022-12-08T14:45:40.151Z,3.35
2022-12-08T14:48:30.986Z,3.17
2022-12-08T14:51:03.670Z,2.90
2022-12-08T14:53:39.609Z,3.47
2022-12-08T14:56:20.572Z,3.78
2022-12-08T14:59:05.338Z,3.38
2022-12-08T15:01:33.220Z,4.40
2022-12-08T15:04:18.051Z,4.15
2022-12-08T15:06:59.651Z,4.60
2022-12-08T15:09:30.856Z,3.85
2022-12-08T15:12:26.159Z,3.95
2022-12-08T15:15:02.437Z,4.40
2022-12-08T15:17:31.551Z,5.95
2022-12-08T15:19:59.948Z,4.95
2022-12-08T15:22:27.345Z,7.03
2022-12-08T15:24:54.225Z,4.80
2022-12-08T15:27:23.618Z,5.70
2022-12-08T15:29:50.474Z,4.13
2022-12-08T15:32:21.942Z,4.65
2022-12-08T15:34:48.602Z,4.43
2022-12-08T15:37:26.499Z,4.22
2022-12-08T15:39:53.312Z,6.03
2022-12-08T15:42:19.881Z,4.78
2022-12-08T15:44:46.469Z,4.22
2022-12-08T15:47:18.026Z,4.50
2022-12-08T15:49:45.252Z,4.65
2022-12-08T15:52:17.740Z,4.50
2022-12-08T15:54:44.279Z,6.47
2022-12-08T16:00:51.139Z,5.25
2022-12-08T16:04:13.920Z,5.30
2022-12-08T16:09:13.733Z,4.85
2022-12-08T16:12:08.766Z,5.68
2022-12-08T16:17:23.368Z,7.70
2022-12-08T16:19:49.869Z,6.55
2022-12-08T16:25:18.857Z,5.97
2022-12-08T16:30:34.267Z,8.98
2022-12-08T16:33:00.909Z,8.15
2022-12-08T16:35:27.551Z,13.07
2022-12-08T16:37:54.184Z,12.20
2022-12-08T16:40:20.955Z,11.50
2022-12-08T16:42:49.737Z,17.33
2022-12-08T16:45:17.503Z,20.10
2022-12-08T16:47:58.798Z,18.67
2022-12-08T16:50:30.387Z,19.70
2022-12-08T16:53:08.933Z,16.90
2022-12-08T16:55:35.540Z,12.95
2022-12-08T16:58:02.696Z,19.52
2022-12-08T17:00:30.935Z,15.32
2022-12-08T17:02:58.829Z,10.75
2022-12-08T17:05:25.841Z,8.13
2022-12-08T17:07:53.298Z,6.32
2022-12-08T17:10:29.048Z,4.97
2022-12-08T17:12:56.270Z,7.35
2022-12-08T17:15:25.732Z,6.60
2022-12-08T17:17:52.782Z,6.20
2022-12-08T17:20:22.246Z,5.38
2022-12-08T17:22:48.876Z,11.63
2022-12-08T17:25:15.604Z,25.25
2022-12-08T17:27:42.736Z,24.08
2022-12-08T17:30:11.669Z,11.25
2022-12-08T17:32:38.902Z,13.48
2022-12-08T17:35:06.113Z,31.98
2022-12-08T17:37:32.879Z,31.38
2022-12-08T17:39:59.394Z,27.40
2022-12-08T17:42:27.140Z,23.90
2022-12-08T17:44:54.613Z,19.80
2022-12-08T17:47:21.726Z,11.48
2022-12-08T17:49:48.750Z,10.10
2022-12-08T17:52:15.284Z,20.25
2022-12-08T17:54:41.794Z,17.02
2022-12-08T17:57:08.212Z,9.43
2022-12-08T17:59:35.028Z,6.95
2022-12-08T18:02:01.614Z,23.52
2022-12-08T18:04:28.786Z,17.88
2022-12-08T18:06:55.344Z,17.10
2022-12-08T18:09:21.880Z,21.48
2022-12-08T18:11:48.751Z,17.77
2022-12-08T18:14:15.975Z,12.23
2022-12-08T18:16:45.233Z,11.20
2022-12-08T18:19:12.819Z,10.25
2022-12-08T18:21:40.293Z,15.30
2022-12-08T18:24:08.253Z,12.90
2022-12-08T18:26:35.399Z,13.40
2022-12-08T18:29:01.914Z,19.15
2022-12-08T18:31:28.532Z,13.85
2022-12-08T18:33:55.195Z,10.10
2022-12-08T18:36:24.809Z,13.15
2022-12-08T18:38:52.611Z,12.43
2022-12-08T18:41:25.899Z,14.00
2022-12-08T18:43:54.618Z,13.90
2022-12-08T18:46:21.644Z,13.65
2022-12-08T18:48:49.914Z,16.20
2022-12-08T18:51:23.630Z,16.80
2022-12-08T18:53:51.295Z,18.75
2022-12-08T18:56:32.837Z,16.98
2022-12-08T18:59:03.878Z,16.85
2022-12-08T19:01:32.710Z,17.58
2022-12-08T19:06:47.014Z,11.98
2022-12-08T19:09:14.097Z,13.02
2022-12-08T19:11:41.452Z,16.55
2022-12-08T19:14:08.811Z,16.50
2022-12-08T19:16:36.380Z,20.25
2022-12-08T19:19:03.846Z,20.75
2022-12-08T19:21:30.409Z,20.38
2022-12-08T19:23:58.398Z,19.48
2022-12-08T19:26:25.950Z,17.27
2022-12-08T19:28:52.473Z,18.25
2022-12-08T19:31:19.035Z,22.33
2022-12-08T19:33:45.648Z,13.95
2022-12-08T19:36:15.339Z,14.68
2022-12-08T19:39:00.635Z,15.95
2022-12-08T19:41:45.741Z,15.68
2022-12-08T19:44:42.034Z,18.00
2022-12-08T19:47:09.211Z,15.52
2022-12-08T19:49:35.848Z,14.80
2022-12-08T19:52:02.527Z,17.52
2022-12-08T19:54:28.970Z,14.93
2022-12-08T19:56:55.769Z,21.42
2022-12-08T19:59:26.146Z,16.73
2022-12-08T20:01:55.579Z,15.50
2022-12-08T20:04:23.855Z,18.52
2022-12-08T20:06:51.414Z,15.65
2022-12-08T20:09:18.198Z,19.58
2022-12-08T20:11:44.613Z,19.13
2022-12-08T20:14:11.035Z,20.20
2022-12-08T20:16:37.811Z,19.27
2022-12-08T20:19:04.482Z,16.17
2022-12-08T20:21:30.951Z,20.15
2022-12-08T20:23:57.426Z,17.20
2022-12-08T20:26:24.566Z,19.20
2022-12-08T20:28:51.457Z,20.90
2022-12-08T20:31:27.840Z,22.10
2022-12-08T20:33:54.555Z,20.45
2022-12-08T20:36:22.174Z,18.88
2022-12-08T20:38:51.093Z,18.92
2022-12-08T20:41:18.848Z,21.15
2022-12-08T20:43:47.161Z,24.83
2022-12-08T20:46:16.783Z,19.90
2022-12-08T20:48:44.220Z,21.98
2022-12-08T20:51:17.086Z,22.92
2022-12-08T20:53:44.059Z,17.40
2022-12-08T20:56:18.653Z,18.88
2022-12-08T20:58:46.068Z,20.27
2022-12-08T21:01:15.145Z,21.23
2022-12-08T21:03:42.834Z,24.15
2022-12-08T21:06:09.883Z,27.48
2022-12-08T21:08:37.598Z,21.92
2022-12-08T21:11:05.067Z,29.15
2022-12-08T21:13:32.053Z,21.42
2022-12-08T21:15:58.557Z,21.48
2022-12-08T21:18:25.711Z,22.67
2022-12-08T21:20:53.152Z,23.85
2022-12-08T21:23:19.831Z,23.17
2022-12-08T21:25:47.386Z,24.08
2022-12-08T21:28:14.526Z,19.85
2022-12-08T21:30:42.752Z,21.52
2022-12-08T21:33:09.820Z,24.00
2022-12-08T21:35:36.738Z,24.27
2022-12-08T21:38:05.819Z,25.20
2022-12-08T21:40:36.635Z,23.60
2022-12-08T21:43:03.850Z,25.95
2022-12-08T21:45:30.787Z,24.02
2022-12-08T21:47:59.146Z,23.40
2022-12-08T21:50:26.057Z,24.63
2022-12-08T21:52:52.623Z,25.52
2022-12-08T21:55:20.185Z,26.17
2022-12-08T21:57:47.381Z,28.27
2022-12-08T22:00:16.170Z,31.90
2022-12-08T22:02:43.385Z,23.50
2022-12-08T22:05:10.194Z,22.10
2022-12-08T22:07:40.817Z,26.55
2022-12-08T22:10:09.372Z,23.77
2022-12-08T22:12:37.501Z,24.85
2022-12-08T22:15:08.441Z,27.23
2022-12-08T22:17:40.009Z,35.43
2022-12-08T22:20:08.662Z,24.55
2022-12-08T22:22:35.779Z,29.20
2022-12-08T22:25:03.914Z,26.55
2022-12-08T22:27:30.520Z,27.80
2022-12-08T22:29:57.132Z,29.65
2022-12-08T22:32:23.645Z,26.80
2022-12-08T22:34:50.368Z,27.25
2022-12-08T22:37:16.848Z,23.35
2022-12-08T22:39:43.253Z,22.60
2022-12-08T22:42:09.686Z,24.92
2022-12-08T22:44:36.604Z,28.70
2022-12-08T22:47:03.085Z,21.42
2022-12-08T22:49:30.037Z,25.33
2022-12-08T22:51:56.673Z,26.35
2022-12-08T22:54:23.192Z,29.25
2022-12-08T22:56:49.857Z,24.60
2022-12-08T22:59:16.363Z,24.05
2022-12-08T23:01:42.886Z,29.00
2022-12-08T23:04:17.247Z,29.33
2022-12-08T23:06:44.773Z,25.33
2022-12-08T23:09:11.603Z,25.73
2022-12-08T23:11:38.121Z,26.80
2022-12-08T23:14:04.822Z,26.65
2022-12-08T23:16:31.524Z,30.17
2022-12-08T23:18:58.811Z,31.75
2022-12-08T23:21:25.403Z,28.00
2022-12-08T23:23:51.968Z,26.00
2022-12-08T23:26:25.730Z,25.48
2022-12-08T23:28:52.796Z,29.67
2022-12-08T23:31:20.160Z,30.42
2022-12-08T23:33:47.198Z,30.00
2022-12-08T23:36:16.021Z,30.08
2022-12-08T23:38:42.863Z,27.08
2022-12-08T23:41:11.834Z,28.70
2022-12-08T23:43:46.391Z,28.55
2022-12-08T23:46:14.444Z,27.42
2022-12-08T23:48:41.231Z,26.80
2022-12-08T23:51:07.952Z,31.73
2022-12-08T23:53:34.793Z,26.63
2022-12-08T23:56:07.048Z,25.73
2022-12-08T23:58:34.782Z,26.55
